HESH/SSH METAR and TAF weather

Enter ICAO airport designator
Station Type Date Time Source
HESH METAR 2020/07/12 06:00 UTC NOAA

HESH 120600Z 01017KT CAVOK 33/20 Q1004 NOSIG


Station Type Date Time Source
HESH Decoded METAR 2020/07/12 06:00 UTC NOAA

Sharm El Sheikhintl, Egypt (HESH) 27-58N 034-23E
Jul 12, 2020 - 02:00 AM EDT / 2020.07.12 0600 UTC
Wind: from the N (010 degrees) at 20 MPH (17 KT):0
Visibility: greater than 7 mile(s):0
Temperature: 91 F (33 C)
Heat index: 94.6 F (34.8 C):1
Dew Point: 68 F (20 C)
Relative Humidity: 46%
Pressure (altimeter): 29.65 in. Hg (1004 hPa)
ob: HESH 120600Z 01017KT CAVOK 33/20 Q1004 NOSIG
cycle: 6

Station Type Date Time Source
HESH TAF 2020/07/12 06:41 UTC NOAA

TAF HESH 120500Z 1206/1312 01010G20KT CAVOK

Example: see airport list